createdAt,value
2019-04-24T00:02:15.054Z,18.40
2019-04-24T00:04:45.383Z,18.40
2019-04-24T00:07:34.852Z,18.40
2019-04-24T00:09:52.105Z,18.30
2019-04-24T00:12:36.512Z,18.30
2019-04-24T00:18:01.901Z,18.20
2019-04-24T00:20:39.738Z,18.20
2019-04-24T00:23:09.576Z,18.20
2019-04-24T00:30:51.994Z,18.10
2019-04-24T00:33:20.220Z,18.10
2019-04-24T00:39:00.534Z,18.00
2019-04-24T00:41:24.158Z,18.00
2019-04-24T00:46:37.444Z,18.00
2019-04-24T00:54:03.227Z,17.80
2019-04-24T00:56:43.417Z,17.80
2019-04-24T01:02:16.586Z,17.70
2019-04-24T01:07:36.255Z,17.70
2019-04-24T01:13:09.601Z,17.80
2019-04-24T01:15:41.439Z,17.80
2019-04-24T01:18:08.895Z,17.70
2019-04-24T01:28:22.052Z,17.80
2019-04-24T01:31:17.253Z,17.80
2019-04-24T01:36:35.982Z,17.80
2019-04-24T01:39:03.181Z,17.80
2019-04-24T01:43:58.809Z,17.70
2019-04-24T01:46:26.693Z,17.80
2019-04-24T01:49:13.259Z,17.70
2019-04-24T01:54:13.810Z,17.80
2019-04-24T01:56:33.873Z,17.80
2019-04-24T01:59:11.749Z,17.80
2019-04-24T02:01:37.296Z,17.80
2019-04-24T02:04:17.850Z,17.80
2019-04-24T02:06:49.599Z,17.70
2019-04-24T02:09:46.159Z,17.70
2019-04-24T02:14:40.894Z,17.70
2019-04-24T02:17:30.458Z,17.70
2019-04-24T02:19:37.125Z,17.60
2019-04-24T02:22:14.512Z,17.60
2019-04-24T02:24:48.870Z,17.60
2019-04-24T02:27:23.355Z,17.60
2019-04-24T02:29:42.870Z,17.60
2019-04-24T02:35:21.529Z,17.60
2019-04-24T02:37:55.724Z,17.60
2019-04-24T02:43:12.587Z,17.50
2019-04-24T02:50:50.869Z,17.50
2019-04-24T02:55:58.243Z,17.50
2019-04-24T02:58:52.110Z,17.50
2019-04-24T03:01:05.488Z,17.40
2019-04-24T03:08:55.295Z,17.40
2019-04-24T03:14:11.342Z,17.40
2019-04-24T03:19:44.584Z,17.40
2019-04-24T03:24:53.351Z,17.40
2019-04-24T03:29:56.580Z,17.30
2019-04-24T03:48:09.728Z,17.30
2019-04-24T03:53:41.904Z,17.20
2019-04-24T04:12:18.918Z,17.10
2019-04-24T04:22:18.619Z,16.90
2019-04-24T04:24:52.899Z,16.90
2019-04-24T04:30:50.802Z,16.90
2019-04-24T04:33:54.546Z,16.90
2019-04-24T04:36:23.322Z,16.90
2019-04-24T04:52:34.226Z,16.80
2019-04-24T04:55:56.244Z,16.80
2019-04-24T04:57:38.822Z,16.80
2019-04-24T05:00:07.697Z,16.70
2019-04-24T05:03:00.341Z,16.70
2019-04-24T05:05:19.300Z,16.70
2019-04-24T05:07:51.730Z,16.80
2019-04-24T05:12:49.490Z,16.80
2019-04-24T05:15:24.666Z,16.80
2019-04-24T05:18:11.985Z,16.80
2019-04-24T05:20:31.815Z,16.80
2019-04-24T05:22:47.535Z,16.70
2019-04-24T05:28:41.713Z,16.70
2019-04-24T05:31:11.443Z,16.70
2019-04-24T05:36:02.031Z,16.80
2019-04-24T05:39:20.573Z,16.80
2019-04-24T05:41:39.627Z,16.90
2019-04-24T05:46:39.471Z,17.10
2019-04-24T05:54:38.640Z,17.20
2019-04-24T06:08:20.319Z,17.50
2019-04-24T06:16:44.020Z,17.90
2019-04-24T06:19:26.107Z,17.90
2019-04-24T06:21:57.487Z,17.90
2019-04-24T06:26:58.324Z,17.80
2019-04-24T06:32:26.607Z,18.00
2019-04-24T06:37:38.997Z,18.20
2019-04-24T06:40:35.450Z,18.30
2019-04-24T06:43:04.592Z,18.40
2019-04-24T06:45:37.893Z,18.50
2019-04-24T06:53:04.267Z,18.10
2019-04-24T06:58:22.687Z,18.00
2019-04-24T07:04:19.843Z,17.60
2019-04-24T07:06:42.293Z,17.30
2019-04-24T07:15:03.491Z,17.20
2019-04-24T07:17:58.940Z,17.40
2019-04-24T07:20:46.189Z,17.50
2019-04-24T07:28:47.691Z,18.10
2019-04-24T07:31:50.790Z,18.00
2019-04-24T07:37:18.337Z,18.20
2019-04-24T07:39:50.312Z,18.30
2019-04-24T07:42:13.106Z,18.60
2019-04-24T07:47:29.275Z,19.00
2019-04-24T07:50:03.298Z,19.10
2019-04-24T07:52:59.926Z,19.30
2019-04-24T07:55:17.689Z,19.50
2019-04-24T07:57:49.074Z,19.60
2019-04-24T08:04:00.280Z,19.60
2019-04-24T08:07:09.424Z,19.80
2019-04-24T08:15:21.974Z,21.80
2019-04-24T08:20:44.715Z,23.80
2019-04-24T08:25:43.628Z,24.70
2019-04-24T08:31:33.363Z,25.40
2019-04-24T08:34:32.854Z,26.00
2019-04-24T08:36:53.184Z,26.60
2019-04-24T08:45:09.362Z,25.60
2019-04-24T08:50:57.161Z,24.70
2019-04-24T09:01:00.667Z,26.90
2019-04-24T09:08:59.236Z,28.50
2019-04-24T09:11:40.016Z,27.90
2019-04-24T09:14:15.530Z,27.80
2019-04-24T09:21:52.888Z,26.40
2019-04-24T09:24:44.104Z,26.10
2019-04-24T09:30:15.471Z,27.90
2019-04-24T09:32:50.803Z,29.00
2019-04-24T09:38:34.742Z,29.40
2019-04-24T09:41:25.591Z,29.20
2019-04-24T09:43:45.983Z,29.30
2019-04-24T09:46:09.358Z,29.30
2019-04-24T09:51:14.671Z,29.30
2019-04-24T09:56:52.966Z,30.60
2019-04-24T09:59:24.069Z,30.60
2019-04-24T10:02:10.532Z,30.90
2019-04-24T10:04:59.530Z,31.40
2019-04-24T10:07:34.671Z,31.00
2019-04-24T10:10:12.026Z,31.40
2019-04-24T10:12:54.218Z,31.50
2019-04-24T10:15:42.347Z,32.00
2019-04-24T10:18:33.501Z,31.70
2019-04-24T10:20:43.175Z,32.60
2019-04-24T10:23:46.324Z,32.70
2019-04-24T10:26:06.241Z,32.30
2019-04-24T10:29:15.089Z,32.90
2019-04-24T10:38:17.622Z,32.40
2019-04-24T10:40:47.245Z,32.40
2019-04-24T10:43:30.840Z,31.50
2019-04-24T10:46:23.883Z,31.20
2019-04-24T10:49:13.236Z,31.60
2019-04-24T10:57:20.247Z,33.50
2019-04-24T10:59:55.105Z,32.90
2019-04-24T11:02:55.069Z,33.00
2019-04-24T11:08:49.206Z,32.00
2019-04-24T11:11:47.464Z,32.80
2019-04-24T11:17:33.153Z,32.90
2019-04-24T11:20:15.858Z,33.00
2019-04-24T11:23:15.250Z,32.50
2019-04-24T11:26:18.181Z,31.70
2019-04-24T11:28:54.089Z,32.30
2019-04-24T11:32:01.242Z,32.70
2019-04-24T11:34:58.460Z,33.10
2019-04-24T11:37:39.545Z,33.80
2019-04-24T11:40:36.731Z,34.40
2019-04-24T11:45:52.756Z,34.60
2019-04-24T11:51:34.362Z,32.90
2019-04-24T11:54:23.023Z,32.60
2019-04-24T11:56:55.594Z,32.70
2019-04-24T11:59:08.646Z,32.70
2019-04-24T12:04:55.117Z,32.00
2019-04-24T12:07:54.246Z,32.50
2019-04-24T12:10:14.430Z,32.80
2019-04-24T12:12:45.472Z,32.70
2019-04-24T12:15:22.771Z,32.60
2019-04-24T12:18:00.987Z,33.00
2019-04-24T12:20:52.919Z,33.80
2019-04-24T12:23:17.701Z,33.20
2019-04-24T12:28:40.688Z,32.50
2019-04-24T12:31:04.914Z,32.50
2019-04-24T12:33:54.614Z,32.10
2019-04-24T12:39:17.721Z,32.30
2019-04-24T12:42:13.913Z,32.00
2019-04-24T12:44:35.453Z,32.90
2019-04-24T12:47:20.100Z,33.30
2019-04-24T12:49:55.119Z,32.70
2019-04-24T12:52:25.601Z,31.80
2019-04-24T13:04:12.131Z,32.90
2019-04-24T13:06:30.073Z,32.60
2019-04-24T13:11:57.717Z,33.20
2019-04-24T13:14:38.782Z,32.80
2019-04-24T13:17:52.972Z,33.10
2019-04-24T13:19:30.928Z,32.90
2019-04-24T13:22:11.193Z,33.20
2019-04-24T13:25:13.091Z,33.10
2019-04-24T13:30:42.789Z,32.40
2019-04-24T13:33:17.883Z,32.20
2019-04-24T13:38:43.777Z,32.20
2019-04-24T13:41:00.132Z,32.60
2019-04-24T13:44:06.167Z,32.90
2019-04-24T13:46:17.991Z,33.20
2019-04-24T13:51:58.679Z,31.80
2019-04-24T13:54:32.143Z,30.80
2019-04-24T13:59:27.428Z,29.70
2019-04-24T14:01:56.336Z,29.40
2019-04-24T14:04:33.365Z,28.60
2019-04-24T14:07:26.245Z,28.40
2019-04-24T14:10:26.071Z,28.30
2019-04-24T14:17:38.414Z,28.60
2019-04-24T14:20:16.815Z,28.60
2019-04-24T14:22:54.443Z,28.60
2019-04-24T14:28:08.130Z,28.20
2019-04-24T14:30:32.331Z,28.00
2019-04-24T14:35:38.412Z,27.90
2019-04-24T14:38:22.447Z,28.00
2019-04-24T14:40:52.815Z,27.90
2019-04-24T14:43:47.766Z,27.90
2019-04-24T14:48:42.030Z,27.60
2019-04-24T14:51:08.491Z,27.60
2019-04-24T14:53:59.285Z,27.40
2019-04-24T14:56:19.050Z,27.20
2019-04-24T15:01:36.752Z,27.20
2019-04-24T15:04:08.924Z,27.30
2019-04-24T15:06:51.098Z,27.10
2019-04-24T15:09:19.254Z,27.00
2019-04-24T15:12:21.129Z,26.90
2019-04-24T15:14:59.898Z,26.90
2019-04-24T15:17:46.310Z,26.90
2019-04-24T15:20:44.041Z,26.80
2019-04-24T15:29:01.736Z,26.50
2019-04-24T15:31:03.798Z,26.50
2019-04-24T15:34:02.217Z,26.50
2019-04-24T15:43:58.206Z,26.20
2019-04-24T15:46:52.357Z,26.10
2019-04-24T15:49:22.155Z,26.10
2019-04-24T15:51:32.492Z,26.00
2019-04-24T15:53:59.356Z,25.80
2019-04-24T15:56:29.629Z,25.80
2019-04-24T15:59:18.559Z,25.80
2019-04-24T16:02:15.457Z,25.80
2019-04-24T16:07:08.303Z,25.90
2019-04-24T16:09:42.910Z,25.80
2019-04-24T16:12:27.041Z,25.90
2019-04-24T16:15:22.420Z,25.90
2019-04-24T16:18:21.676Z,25.90
2019-04-24T16:21:02.398Z,25.90
2019-04-24T16:23:47.101Z,25.80
2019-04-24T16:25:57.346Z,25.70
2019-04-24T16:28:23.260Z,25.70
2019-04-24T16:31:04.677Z,25.60
2019-04-24T16:33:43.956Z,25.50
2019-04-24T16:39:06.093Z,25.30
2019-04-24T16:42:03.038Z,25.30
2019-04-24T16:47:04.614Z,24.80
2019-04-24T16:52:15.272Z,22.90
2019-04-24T17:12:56.336Z,15.80
2019-04-24T17:15:33.384Z,15.60
2019-04-24T17:31:40.441Z,15.80
2019-04-24T17:34:30.616Z,15.90
2019-04-24T17:36:31.717Z,16.10
2019-04-24T17:39:16.700Z,15.90
2019-04-24T17:41:55.258Z,15.70
2019-04-24T17:47:46.507Z,15.60
2019-04-24T17:55:56.394Z,15.20
2019-04-24T17:58:14.242Z,15.20
2019-04-24T18:00:58.677Z,15.10
2019-04-24T18:03:30.335Z,15.20
2019-04-24T18:06:21.751Z,15.20
2019-04-24T18:09:04.490Z,15.10
2019-04-24T18:11:37.875Z,15.10
2019-04-24T18:14:09.247Z,14.90
2019-04-24T18:16:45.140Z,14.70
2019-04-24T18:19:23.804Z,14.40
2019-04-24T18:22:07.169Z,14.30
2019-04-24T18:25:08.897Z,14.10
2019-04-24T18:27:43.292Z,13.70
2019-04-24T18:30:16.697Z,13.50
2019-04-24T18:32:57.202Z,13.50
2019-04-24T18:35:33.553Z,13.50
2019-04-24T18:38:18.120Z,13.40
2019-04-24T18:41:16.813Z,13.30
2019-04-24T18:43:52.339Z,13.30
2019-04-24T18:46:26.605Z,13.20
2019-04-24T18:49:18.766Z,13.10
2019-04-24T18:51:53.299Z,13.10
2019-04-24T18:54:23.529Z,13.10
2019-04-24T18:56:53.727Z,13.00
2019-04-24T18:59:24.586Z,13.10
2019-04-24T19:01:55.764Z,13.00
2019-04-24T19:04:33.454Z,13.00
2019-04-24T19:07:27.129Z,12.90
2019-04-24T19:10:13.645Z,13.00
2019-04-24T19:12:45.900Z,12.80
2019-04-24T19:15:21.475Z,12.60
2019-04-24T19:17:54.899Z,12.60
2019-04-24T19:20:29.697Z,12.50
2019-04-24T19:23:09.304Z,12.50
2019-04-24T19:25:52.833Z,12.30
2019-04-24T19:28:32.303Z,12.40
2019-04-24T19:31:32.445Z,12.40
2019-04-24T19:34:14.705Z,12.40
2019-04-24T19:37:27.698Z,12.40
2019-04-24T19:43:41.809Z,12.40
2019-04-24T19:46:22.338Z,12.40
2019-04-24T19:49:26.237Z,12.30
2019-04-24T19:52:06.630Z,12.20
2019-04-24T19:54:43.068Z,12.10
2019-04-24T19:57:37.186Z,12.10
2019-04-24T20:00:22.507Z,12.00
2019-04-24T20:02:55.809Z,11.90
2019-04-24T20:05:36.536Z,11.80
2019-04-24T20:08:27.522Z,11.80
2019-04-24T20:11:23.406Z,11.80
2019-04-24T20:15:12.825Z,11.90
2019-04-24T20:17:53.339Z,11.80
2019-04-24T20:20:57.189Z,11.70
2019-04-24T20:23:44.130Z,11.60
2019-04-24T20:26:26.794Z,11.50
2019-04-24T20:29:02.580Z,11.60
2019-04-24T20:31:39.755Z,11.40
2019-04-24T20:34:14.610Z,11.30
2019-04-24T20:36:48.771Z,11.30
2019-04-24T20:39:28.503Z,11.30
2019-04-24T20:42:03.272Z,11.40
2019-04-24T20:44:39.288Z,11.40
2019-04-24T20:47:16.149Z,11.30
2019-04-24T20:50:01.843Z,11.40
2019-04-24T20:52:42.363Z,11.40
2019-04-24T20:55:17.101Z,11.50
2019-04-24T20:57:57.039Z,11.50
2019-04-24T21:00:31.689Z,11.50
2019-04-24T21:03:16.015Z,11.60
2019-04-24T21:06:25.144Z,11.60
2019-04-24T21:09:25.255Z,11.60
2019-04-24T21:11:53.150Z,11.70
2019-04-24T21:14:36.030Z,11.70
2019-04-24T21:17:12.255Z,11.60
2019-04-24T21:19:47.822Z,11.60
2019-04-24T21:22:18.303Z,11.60
2019-04-24T21:24:52.890Z,11.50
2019-04-24T21:27:31.297Z,11.40
2019-04-24T21:30:05.996Z,11.40
2019-04-24T21:32:49.710Z,11.40
2019-04-24T21:35:21.121Z,11.30
2019-04-24T21:37:55.310Z,11.30
2019-04-24T21:40:26.694Z,11.30
2019-04-24T21:43:01.325Z,11.30
2019-04-24T21:45:35.298Z,11.30
2019-04-24T21:48:18.526Z,11.30
2019-04-24T21:50:58.603Z,11.30
2019-04-24T21:53:31.057Z,11.30
2019-04-24T21:56:12.881Z,11.30
2019-04-24T21:58:43.513Z,11.20
2019-04-24T22:01:33.260Z,11.30
2019-04-24T22:04:30.300Z,11.30
2019-04-24T22:07:24.266Z,11.30
2019-04-24T22:10:17.883Z,11.40
2019-04-24T22:12:52.192Z,11.30
2019-04-24T22:15:26.882Z,11.30
2019-04-24T22:18:02.297Z,11.20
2019-04-24T22:20:41.977Z,11.20
2019-04-24T22:23:29.622Z,11.20
2019-04-24T22:26:02.541Z,11.30
2019-04-24T22:28:59.484Z,11.30
2019-04-24T22:31:44.832Z,11.30
2019-04-24T22:34:19.290Z,11.30
2019-04-24T22:36:49.228Z,11.30
2019-04-24T22:39:48.000Z,11.30
2019-04-24T22:42:22.883Z,11.30
2019-04-24T22:44:55.346Z,11.30
2019-04-24T22:47:26.862Z,11.30
2019-04-24T22:50:02.333Z,11.30
2019-04-24T22:52:32.967Z,11.20
2019-04-24T22:55:04.245Z,11.30
2019-04-24T22:57:34.849Z,11.30
2019-04-24T23:00:06.197Z,11.30
2019-04-24T23:02:38.955Z,11.30
2019-04-24T23:05:11.627Z,11.20
2019-04-24T23:07:46.381Z,11.20
2019-04-24T23:10:17.341Z,11.30
2019-04-24T23:12:48.415Z,11.20
2019-04-24T23:15:22.574Z,11.30
2019-04-24T23:17:52.722Z,11.30
2019-04-24T23:20:26.483Z,11.30
2019-04-24T23:23:05.905Z,11.30
2019-04-24T23:25:53.912Z,11.30
2019-04-24T23:28:42.462Z,11.20
2019-04-24T23:31:32.908Z,11.20
2019-04-24T23:34:03.371Z,11.20
2019-04-24T23:36:33.943Z,11.20
2019-04-24T23:39:05.279Z,11.20
2019-04-24T23:41:36.034Z,11.20
2019-04-24T23:44:12.734Z,11.20
2019-04-24T23:46:43.978Z,11.10
2019-04-24T23:49:19.672Z,11.10
2019-04-24T23:51:51.571Z,11.10
2019-04-24T23:54:21.572Z,11.00
2019-04-24T23:56:51.843Z,11.00
2019-04-24T23:59:22.451Z,11.00
